Time;durP1;ratioP1;P1;durP2;ratioP2;P2;SDS_P1;SDS_P2;PMS_P1;PMS_P2;Temp;Humidity;BMP_temperature;BMP_pressure;BME280_temperature;BME280_humidity;BME280_pressure;Samples;Min_cycle;Max_cycle;Signal;HPM_P1;HPM_P2
2022/09/13 00:01:35;;;;;;;;;;;17.10;99.90;;;;;;5038960;28;20019;-88
2022/09/13 00:04:03;;;;;;;;;;;17.20;99.90;;;;;;5041426;28;20381;-88
2022/09/13 00:06:29;;;;;;;;;;;17.10;99.90;;;;;;5039209;28;19932;-88
2022/09/13 00:08:55;;;;;;;;;;;17.10;99.90;;;;;;5038364;28;19925;-88
2022/09/13 00:11:23;;;;;;;;;;;17.20;99.90;;;;;;5039132;28;19929;-88
2022/09/13 00:13:52;;;;;;;;;;;17.00;99.90;;;;;;5037455;28;19928;-88
2022/09/13 00:16:18;;;;;;;;;;;17.00;99.90;;;;;;5039046;28;19924;-88
2022/09/13 00:18:46;;;;;;;;;;;17.00;99.90;;;;;;5058779;28;20290;-91
2022/09/13 00:21:13;;;;;;;;;;;17.20;99.90;;;;;;5070112;28;19924;-88
2022/09/13 00:23:41;;;;;;;;;;;16.80;99.90;;;;;;5075765;28;19924;-88
2022/09/13 00:26:21;;;;;;;;;;;17.10;99.90;;;;;;5058215;28;20372;-88
2022/09/13 00:28:49;;;;;;;;;;;17.30;99.90;;;;;;5059455;28;20539;-88
2022/09/13 00:31:14;;;;;;;;;;;17.20;99.90;;;;;;5058095;28;20335;-88
2022/09/13 00:33:40;;;;;;;;;;;17.10;99.90;;;;;;5057974;28;19939;-88
2022/09/13 00:36:06;;;;;;;;;;;17.30;99.90;;;;;;5057933;28;19925;-88
2022/09/13 00:38:35;;;;;;;;;;;17.10;99.90;;;;;;5042134;28;20364;-88
2022/09/13 00:41:04;;;;;;;;;;;17.10;99.90;;;;;;5058169;28;19991;-88
2022/09/13 00:43:39;;;;;;;;;;;17.10;99.90;;;;;;5041913;28;20051;-88
2022/09/13 00:46:05;;;;;;;;;;;17.10;99.90;;;;;;5041731;28;19928;-86
2022/09/13 00:48:30;;;;;;;;;;;17.30;99.90;;;;;;5074495;28;19940;-88
2022/09/13 00:50:56;;;;;;;;;;;17.50;99.90;;;;;;5058085;28;19951;-88
2022/09/13 00:53:25;;;;;;;;;;;17.20;99.90;;;;;;5058049;28;19930;-89
2022/09/13 00:55:55;;;;;;;;;;;17.10;99.90;;;;;;5057250;28;20007;-87
2022/09/13 00:58:44;;;;;;;;;;;16.90;99.90;;;;;;5057504;28;20299;-88
2022/09/13 01:01:15;;;;;;;;;;;17.10;99.90;;;;;;5067298;28;19931;-87
2022/09/13 01:03:47;;;;;;;;;;;17.10;99.90;;;;;;5057250;28;20495;-87
2022/09/13 01:06:14;;;;;;;;;;;17.50;99.90;;;;;;5074451;28;19974;-86
2022/09/13 01:08:41;;;;;;;;;;;17.00;99.90;;;;;;5057433;28;19932;-86
2022/09/13 01:11:10;;;;;;;;;;;17.00;99.90;;;;;;5057209;28;20350;-88
2022/09/13 01:13:39;;;;;;;;;;;17.00;99.90;;;;;;5040910;28;19928;-88
2022/09/13 01:16:07;;;;;;;;;;;18.70;99.90;;;;;;5056111;28;20019;-87
2022/09/13 01:18:32;;;;;;;;;;;16.40;99.90;;;;;;5057388;28;19924;-88
2022/09/13 01:21:11;;;;;;;;;;;17.10;99.90;;;;;;5073081;28;19931;-86
2022/09/13 01:23:51;;;;;;;;;;;16.90;99.90;;;;;;5056901;28;19975;-87
2022/09/13 01:26:37;;;;;;;;;;;16.90;99.90;;;;;;5074505;28;19928;-89
2022/09/13 01:29:02;;;;;;;;;;;17.00;99.90;;;;;;5056585;28;19982;-88
2022/09/13 01:31:31;;;;;;;;;;;17.00;99.90;;;;;;5073175;28;19924;-88
2022/09/13 01:33:57;;;;;;;;;;;17.00;99.90;;;;;;5073575;28;19928;-89
2022/09/13 01:36:24;;;;;;;;;;;17.20;99.90;;;;;;5056771;28;20269;-87
2022/09/13 01:38:52;;;;;;;;;;;16.90;99.90;;;;;;5073436;28;20485;-92
2022/09/13 01:41:37;;;;;;;;;;;15.00;99.90;;;;;;5073524;28;19924;-87
2022/09/13 01:44:02;;;;;;;;;;;16.40;99.90;;;;;;5056638;28;19928;-88
2022/09/13 01:46:30;;;;;;;;;;;16.90;99.90;;;;;;5074031;28;19931;-87
2022/09/13 01:48:56;;;;;;;;;;;16.90;99.90;;;;;;5056521;28;20487;-87
2022/09/13 01:51:22;;;;;;;;;;;16.90;99.90;;;;;;5073628;28;20350;-87
2022/09/13 01:54:07;;;;;;;;;;;16.90;99.90;;;;;;5057101;28;20353;-89
2022/09/13 01:57:02;;;;;;;;;;;16.90;99.90;;;;;;5048797;28;19928;-88
2022/09/13 01:59:38;;;;;;;;;;;16.90;99.90;;;;;;5020377;28;19929;-89
2022/09/13 02:02:06;;;;;;;;;;;16.90;99.90;;;;;;5056380;28;19932;-87
2022/09/13 02:04:39;;;;;;;;;;;16.90;99.90;;;;;;5055772;28;19924;-88
2022/09/13 02:07:13;;;;;;;;;;;16.90;99.90;;;;;;5039610;28;20330;-87
2022/09/13 02:09:46;;;;;;;;;;;16.90;99.90;;;;;;5040822;28;19924;-88
2022/09/13 02:12:19;;;;;;;;;;;16.90;99.90;;;;;;5040053;28;19925;-87
2022/09/13 02:14:45;;;;;;;;;;;16.90;99.90;;;;;;5058913;28;19932;-89
2022/09/13 02:17:15;;;;;;;;;;;16.90;99.90;;;;;;5039711;28;19929;-87
2022/09/13 02:20:04;;;;;;;;;;;16.90;99.90;;;;;;5039639;28;19951;-86
2022/09/13 02:22:31;;;;;;;;;;;16.90;99.90;;;;;;5063745;28;19924;-89
2022/09/13 02:24:57;;;;;;;;;;;16.90;99.90;;;;;;5072242;28;19932;-90
2022/09/13 02:27:23;;;;;;;;;;;16.90;99.90;;;;;;5056253;28;20023;-88
2022/09/13 02:29:50;;;;;;;;;;;16.90;99.90;;;;;;5055740;28;19929;-87
2022/09/13 02:32:35;;;;;;;;;;;16.90;99.90;;;;;;5055363;28;19979;-88
2022/09/13 02:35:05;;;;;;;;;;;16.90;99.90;;;;;;5042622;28;20003;-88
2022/09/13 02:37:31;;;;;;;;;;;16.90;99.90;;;;;;5056637;28;19947;-88
2022/09/13 02:40:01;;;;;;;;;;;16.90;99.90;;;;;;5055628;28;20376;-87
2022/09/13 02:42:35;;;;;;;;;;;16.90;99.90;;;;;;5055342;28;19924;-88
2022/09/13 02:45:00;;;;;;;;;;;16.90;99.90;;;;;;5073085;28;20405;-87
2022/09/13 02:47:41;;;;;;;;;;;16.90;99.90;;;;;;5072037;28;19924;-87
2022/09/13 02:50:10;;;;;;;;;;;16.90;99.90;;;;;;5072282;28;19973;-89
2022/09/13 02:52:38;;;;;;;;;;;16.90;99.90;;;;;;5056175;28;19974;-87
2022/09/13 02:55:28;;;;;;;;;;;16.90;99.90;;;;;;5069325;28;20603;-87
2022/09/13 02:58:08;;;;;;;;;;;16.90;99.90;;;;;;5043347;28;20337;-87
2022/09/13 03:00:34;;;;;;;;;;;16.90;99.90;;;;;;5055539;28;19924;-90
2022/09/13 03:03:03;;;;;;;;;;;16.90;99.90;;;;;;5072233;28;19935;-88
2022/09/13 03:05:28;;;;;;;;;;;16.90;99.90;;;;;;5055253;28;19924;-88
2022/09/13 03:07:54;;;;;;;;;;;16.90;99.90;;;;;;5055306;28;19978;-88
2022/09/13 03:10:19;;;;;;;;;;;16.90;99.90;;;;;;5071313;28;20368;-87
2022/09/13 03:12:50;;;;;;;;;;;16.90;99.90;;;;;;5071572;28;20343;-88
2022/09/13 03:15:21;;;;;;;;;;;16.90;99.90;;;;;;5037862;28;19928;-88
2022/09/13 03:17:51;;;;;;;;;;;16.90;99.90;;;;;;5055988;28;19925;-90
2022/09/13 03:20:18;;;;;;;;;;;16.90;99.90;;;;;;5037456;28;20011;-89
2022/09/13 03:22:46;;;;;;;;;;;16.90;99.90;;;;;;5070974;28;19947;-87
2022/09/13 03:25:31;;;;;;;;;;;16.90;99.90;;;;;;5070711;28;19937;-88
2022/09/13 03:28:00;;;;;;;;;;;17.00;99.90;;;;;;5056268;28;19972;-89
2022/09/13 03:30:25;;;;;;;;;;;17.00;99.90;;;;;;5055189;28;20436;-89
2022/09/13 03:32:51;;;;;;;;;;;16.70;99.90;;;;;;5054989;28;20015;-89
2022/09/13 03:35:25;;;;;;;;;;;17.00;99.90;;;;;;5054318;28;19979;-87
2022/09/13 03:37:53;;;;;;;;;;;17.00;99.90;;;;;;5055327;28;19935;-88
2022/09/13 03:40:39;;;;;;;;;;;17.00;99.90;;;;;;5054898;28;19924;-87
2022/09/13 03:43:12;;;;;;;;;;;16.90;99.90;;;;;;5060883;28;19939;-88
2022/09/13 03:45:40;;;;;;;;;;;17.00;99.90;;;;;;5056165;28;19986;-89
2022/09/13 03:48:06;;;;;;;;;;;17.00;99.90;;;;;;5056053;28;19932;-88
2022/09/13 03:50:31;;;;;;;;;;;17.00;99.90;;;;;;5055955;28;19928;-87
2022/09/13 03:53:01;;;;;;;;;;;17.00;99.90;;;;;;5075342;28;19928;-89
2022/09/13 03:55:27;;;;;;;;;;;17.00;99.90;;;;;;5042855;28;19958;-90
2022/09/13 03:57:53;;;;;;;;;;;17.00;99.90;;;;;;5059187;28;19925;-88
2022/09/13 04:00:18;;;;;;;;;;;17.10;99.90;;;;;;5061939;28;19932;-88
2022/09/13 04:02:44;;;;;;;;;;;17.10;99.90;;;;;;5060183;28;20022;-90
2022/09/13 04:05:10;;;;;;;;;;;17.10;99.90;;;;;;5055285;28;19924;-89
2022/09/13 04:07:35;;;;;;;;;;;17.20;99.90;;;;;;5055917;28;19947;-89
2022/09/13 04:10:01;;;;;;;;;;;17.10;99.90;;;;;;5039024;28;19925;-88
2022/09/13 04:12:29;;;;;;;;;;;17.20;99.90;;;;;;5054807;28;20011;-88
2022/09/13 04:14:55;;;;;;;;;;;17.20;99.90;;;;;;5055033;28;19928;-89
2022/09/13 04:17:21;;;;;;;;;;;17.20;99.90;;;;;;5054997;28;19928;-88
2022/09/13 04:19:46;;;;;;;;;;;17.20;99.90;;;;;;5038278;28;19924;-87
2022/09/13 04:22:12;;;;;;;;;;;17.20;99.90;;;;;;5072164;28;19924;-88
2022/09/13 04:24:38;;;;;;;;;;;17.20;99.90;;;;;;5042248;28;20280;-89
2022/09/13 04:27:04;;;;;;;;;;;17.20;99.90;;;;;;5074409;28;20008;-87
2022/09/13 04:29:31;;;;;;;;;;;17.20;99.90;;;;;;5037857;28;20379;-88
2022/09/13 04:31:59;;;;;;;;;;;17.20;99.90;;;;;;5071745;28;19977;-88
2022/09/13 04:34:25;;;;;;;;;;;17.20;99.90;;;;;;5070769;28;19924;-89
2022/09/13 04:36:51;;;;;;;;;;;17.20;99.90;;;;;;5038759;28;20027;-88
2022/09/13 04:39:17;;;;;;;;;;;17.20;99.90;;;;;;5058554;28;19977;-88
2022/09/13 04:41:44;;;;;;;;;;;16.10;99.90;;;;;;5058338;28;19928;-88
2022/09/13 04:44:10;;;;;;;;;;;17.20;99.90;;;;;;5074735;28;19931;-88
2022/09/13 04:46:36;;;;;;;;;;;17.20;99.90;;;;;;5042102;28;20342;-89
2022/09/13 04:49:02;;;;;;;;;;;17.30;99.90;;;;;;5058552;28;19932;-89
2022/09/13 04:51:27;;;;;;;;;;;17.20;99.90;;;;;;5058263;28;19924;-89
2022/09/13 04:53:54;;;;;;;;;;;17.20;99.90;;;;;;5075984;28;19924;-88
2022/09/13 04:56:20;;;;;;;;;;;17.20;99.90;;;;;;5076889;28;19929;-87
2022/09/13 04:58:46;;;;;;;;;;;17.20;99.90;;;;;;5060153;28;19947;-88
2022/09/13 05:01:11;;;;;;;;;;;17.20;99.90;;;;;;5075905;28;19924;-88
2022/09/13 05:03:37;;;;;;;;;;;17.20;99.90;;;;;;5077802;28;19925;-88
2022/09/13 05:06:07;;;;;;;;;;;17.20;99.90;;;;;;5060809;28;19925;-88
2022/09/13 05:08:33;;;;;;;;;;;17.20;99.90;;;;;;5059243;28;19924;-87
2022/09/13 05:10:58;;;;;;;;;;;17.20;99.90;;;;;;5059673;28;19977;-89
2022/09/13 05:13:24;;;;;;;;;;;17.20;99.90;;;;;;5075735;28;20281;-88
2022/09/13 05:15:53;;;;;;;;;;;17.20;99.90;;;;;;5059878;28;19967;-89
2022/09/13 05:18:19;;;;;;;;;;;17.30;99.90;;;;;;5071827;28;19963;-89
2022/09/13 05:20:44;;;;;;;;;;;17.20;99.90;;;;;;5083293;28;19958;-89
2022/09/13 05:23:10;;;;;;;;;;;17.20;99.90;;;;;;5061248;28;20465;-88
2022/09/13 05:25:35;;;;;;;;;;;17.20;99.90;;;;;;5044637;28;19929;-89
2022/09/13 05:28:01;;;;;;;;;;;17.20;99.90;;;;;;5079848;28;20407;-88
2022/09/13 05:30:27;;;;;;;;;;;17.20;99.90;;;;;;5052173;28;20022;-88
2022/09/13 05:32:52;;;;;;;;;;;17.20;99.90;;;;;;5069465;28;19924;-89
2022/09/13 05:35:18;;;;;;;;;;;17.00;99.90;;;;;;5084812;28;19925;-88
2022/09/13 05:37:43;;;;;;;;;;;17.20;99.90;;;;;;5078893;28;19928;-87
2022/09/13 05:40:09;;;;;;;;;;;17.20;99.90;;;;;;5059473;28;19925;-90
2022/09/13 05:42:35;;;;;;;;;;;17.20;99.90;;;;;;5058313;28;19977;-88
2022/09/13 05:45:00;;;;;;;;;;;17.20;99.90;;;;;;5043475;28;19932;-89
2022/09/13 05:47:26;;;;;;;;;;;17.20;99.90;;;;;;5059156;28;19928;-90
2022/09/13 05:49:51;;;;;;;;;;;18.10;99.90;;;;;;5062210;28;20028;-89
2022/09/13 05:52:17;;;;;;;;;;;17.20;99.90;;;;;;5067819;28;20357;-88
2022/09/13 05:54:42;;;;;;;;;;;17.30;99.90;;;;;;5082926;28;19924;-89
2022/09/13 05:57:08;;;;;;;;;;;17.30;99.90;;;;;;5082335;28;19924;-90
2022/09/13 05:59:34;;;;;;;;;;;17.20;99.90;;;;;;5079605;28;19978;-89
2022/09/13 06:01:59;;;;;;;;;;;17.20;99.90;;;;;;5043647;28;20272;-89
2022/09/13 06:04:26;;;;;;;;;;;17.20;99.90;;;;;;5057785;28;19924;-88
2022/09/13 06:06:52;;;;;;;;;;;17.20;99.90;;;;;;5073137;28;19939;-89
2022/09/13 06:09:18;;;;;;;;;;;17.20;99.90;;;;;;5039718;28;20015;-88
2022/09/13 06:11:44;;;;;;;;;;;17.20;99.90;;;;;;5072559;28;19936;-89
2022/09/13 06:14:10;;;;;;;;;;;17.10;99.90;;;;;;5055997;28;19924;-87
2022/09/13 06:16:35;;;;;;;;;;;17.20;99.90;;;;;;5039022;28;19931;-89
2022/09/13 06:19:01;;;;;;;;;;;17.10;99.90;;;;;;5071757;28;19951;-89
2022/09/13 06:21:27;;;;;;;;;;;17.10;99.90;;;;;;5071815;28;19939;-89
2022/09/13 06:23:52;;;;;;;;;;;17.10;99.90;;;;;;5038990;28;19972;-89
2022/09/13 06:26:19;;;;;;;;;;;17.10;99.90;;;;;;5055732;28;20023;-89
2022/09/13 06:28:48;;;;;;;;;;;17.10;99.90;;;;;;5055472;28;19934;-87
2022/09/13 06:31:16;;;;;;;;;;;17.10;99.90;;;;;;5055623;28;19931;-89
2022/09/13 06:33:42;;;;;;;;;;;17.10;99.90;;;;;;5056487;28;19924;-87
2022/09/13 06:36:08;;;;;;;;;;;17.00;99.90;;;;;;5042052;28;20023;-89
2022/09/13 06:38:34;;;;;;;;;;;17.00;99.90;;;;;;5072475;28;19969;-88
2022/09/13 06:41:00;;;;;;;;;;;17.10;99.90;;;;;;5055488;28;19928;-87
2022/09/13 06:43:29;;;;;;;;;;;16.90;99.90;;;;;;5055522;28;19970;-88
2022/09/13 06:45:58;;;;;;;;;;;17.00;99.90;;;;;;5071344;28;19949;-88
2022/09/13 06:48:23;;;;;;;;;;;17.00;99.90;;;;;;5038679;28;19982;-88
2022/09/13 06:50:49;;;;;;;;;;;17.00;99.90;;;;;;5071665;28;19966;-89
2022/09/13 06:53:15;;;;;;;;;;;18.20;99.90;;;;;;5038261;28;19951;-88
2022/09/13 06:55:40;;;;;;;;;;;17.20;99.90;;;;;;5038191;28;19935;-87
2022/09/13 06:58:06;;;;;;;;;;;17.30;99.90;;;;;;5038637;28;19924;-89
2022/09/13 07:00:36;;;;;;;;;;;17.10;99.90;;;;;;5054758;28;19924;-88
2022/09/13 07:03:08;;;;;;;;;;;17.20;99.90;;;;;;5055286;28;19931;-88
2022/09/13 07:05:33;;;;;;;;;;;17.30;99.90;;;;;;5037941;28;19928;-88
2022/09/13 07:07:59;;;;;;;;;;;17.30;99.90;;;;;;5056098;28;20023;-89
2022/09/13 07:10:32;;;;;;;;;;;17.30;99.90;;;;;;5055872;28;20403;-89
2022/09/13 07:12:58;;;;;;;;;;;17.40;99.90;;;;;;5071815;28;20352;-88
2022/09/13 07:15:31;;;;;;;;;;;17.40;99.90;;;;;;5038039;28;19974;-87
2022/09/13 07:17:57;;;;;;;;;;;18.30;99.90;;;;;;5054996;28;20292;-87
2022/09/13 07:20:25;;;;;;;;;;;17.60;99.90;;;;;;5072083;28;19971;-90
2022/09/13 07:22:51;;;;;;;;;;;17.30;99.90;;;;;;5038963;28;20172;-89
2022/09/13 07:25:17;;;;;;;;;;;17.70;99.90;;;;;;5056758;28;19947;-88
2022/09/13 07:27:45;;;;;;;;;;;17.80;99.90;;;;;;5047454;28;19924;-87
2022/09/13 07:30:11;;;;;;;;;;;17.90;99.90;;;;;;5081954;28;19935;-89
2022/09/13 07:32:36;;;;;;;;;;;18.20;99.90;;;;;;5064349;28;19925;-88
2022/09/13 07:35:06;;;;;;;;;;;18.60;99.90;;;;;;5056561;28;19925;-91
2022/09/13 07:37:35;;;;;;;;;;;19.20;99.90;;;;;;5044657;28;20338;-88
2022/09/13 07:40:03;;;;;;;;;;;20.10;99.90;;;;;;5089166;28;19928;-93
2022/09/13 07:42:29;;;;;;;;;;;20.20;99.90;;;;;;5040493;28;19924;-90
2022/09/13 07:44:55;;;;;;;;;;;20.10;99.90;;;;;;5038882;28;20011;-91
2022/09/13 07:47:23;;;;;;;;;;;20.00;99.90;;;;;;5040031;28;19939;-92
2022/09/13 07:49:49;;;;;;;;;;;19.80;99.90;;;;;;5036378;28;19932;-91
2022/09/13 07:52:17;;;;;;;;;;;19.60;99.90;;;;;;5054358;28;20372;-90
2022/09/13 07:54:43;;;;;;;;;;;19.80;99.90;;;;;;5037866;28;20361;-90
2022/09/13 07:57:09;;;;;;;;;;;20.60;99.90;;;;;;5073636;28;19924;-92
2022/09/13 07:59:38;;;;;;;;;;;21.30;99.90;;;;;;5059880;28;20023;-92
2022/09/13 08:02:11;;;;;;;;;;;22.50;99.90;;;;;;5066516;28;19932;-91
2022/09/13 08:04:42;;;;;;;;;;;22.70;99.90;;;;;;5062789;28;19925;-90
2022/09/13 08:07:13;;;;;;;;;;;23.70;99.90;;;;;;5056818;28;19948;-92
2022/09/13 08:09:39;;;;;;;;;;;22.70;99.90;;;;;;5038877;28;19925;-90
2022/09/13 08:12:05;;;;;;;;;;;22.70;99.90;;;;;;5060335;28;19931;-91
2022/09/13 08:14:38;;;;;;;;;;;22.00;99.90;;;;;;5042553;28;19976;-91
2022/09/13 08:17:09;;;;;;;;;;;22.20;99.90;;;;;;5061253;28;19967;-90
2022/09/13 08:19:39;;;;;;;;;;;23.10;99.90;;;;;;5044751;28;19979;-92
2022/09/13 08:22:25;;;;;;;;;;;23.90;99.90;;;;;;5044429;28;19929;-92
2022/09/13 08:24:51;;;;;;;;;;;23.90;99.90;;;;;;5078786;28;20419;-90
2022/09/13 08:27:19;;;;;;;;;;;24.00;99.90;;;;;;5067688;28;19967;-89
2022/09/13 08:29:50;;;;;;;;;;;22.90;99.90;;;;;;5059798;28;19928;-91
2022/09/13 08:32:17;;;;;;;;;;;23.70;99.90;;;;;;5075825;28;19931;-90
2022/09/13 08:34:53;;;;;;;;;;;22.50;99.90;;;;;;5043152;28;19974;-88
2022/09/13 08:37:19;;;;;;;;;;;23.00;99.90;;;;;;5075898;28;19990;-87
2022/09/13 08:39:44;;;;;;;;;;;23.80;99.90;;;;;;5041961;28;19928;-91
2022/09/13 08:42:13;;;;;;;;;;;23.90;99.90;;;;;;5058278;28;19928;-89
2022/09/13 08:44:44;;;;;;;;;;;24.90;99.90;;;;;;5059636;28;19925;-90
2022/09/13 08:47:18;;;;;;;;;;;24.40;99.90;;;;;;5045032;28;19956;-89
2022/09/13 08:49:46;;;;;;;;;;;24.50;99.90;;;;;;5075885;28;19935;-90
2022/09/13 08:52:19;;;;;;;;;;;24.50;99.90;;;;;;5061594;28;19948;-92
2022/09/13 08:54:58;;;;;;;;;;;;;;;;;;;;;
2022/09/13 08:57:30;;;;;;;;;;;24.00;99.90;;;;;;5062766;28;19928;-92
2022/09/13 08:59:56;;;;;;;;;;;24.00;99.90;;;;;;5039808;28;19934;-83
2022/09/13 09:02:28;;;;;;;;;;;24.00;99.90;;;;;;5074264;28;20011;-84
2022/09/13 09:05:01;;;;;;;;;;;24.60;99.90;;;;;;5072781;28;19925;-85
2022/09/13 09:07:27;;;;;;;;;;;24.70;99.90;;;;;;5056260;28;19931;-82
2022/09/13 09:09:57;;;;;;;;;;;24.10;99.90;;;;;;5072439;28;19928;-82
2022/09/13 09:12:23;;;;;;;;;;;23.70;99.90;;;;;;5055900;28;19935;-83
2022/09/13 09:15:07;;;;;;;;;;;23.70;99.90;;;;;;5072708;28;19929;-84
2022/09/13 09:17:44;;;;;;;;;;;23.50;99.90;;;;;;5072359;28;19933;-83
2022/09/13 09:20:09;;;;;;;;;;;23.30;99.90;;;;;;5071843;28;20011;-83
2022/09/13 09:22:35;;;;;;;;;;;23.40;99.90;;;;;;5072157;28;20448;-84
2022/09/13 09:25:01;;;;;;;;;;;24.20;99.90;;;;;;5073283;28;19975;-84
2022/09/13 09:27:28;;;;;;;;;;;24.60;99.90;;;;;;5072017;28;20299;-84
2022/09/13 09:29:54;;;;;;;;;;;25.20;99.90;;;;;;5071070;28;20384;-84
2022/09/13 09:32:32;;;;;;;;;;;25.40;99.90;;;;;;5073117;28;19928;-84
2022/09/13 09:35:00;;;;;;;;;;;25.70;99.90;;;;;;5069912;28;19978;-83
2022/09/13 09:37:27;;;;;;;;;;;25.30;99.90;;;;;;5071860;28;20348;-85
2022/09/13 09:39:52;;;;;;;;;;;23.60;99.90;;;;;;5071489;28;19933;-84
2022/09/13 09:42:20;;;;;;;;;;;23.30;99.90;;;;;;5072045;28;19931;-83
2022/09/13 09:44:47;;;;;;;;;;;23.70;99.90;;;;;;5071581;28;19974;-84
2022/09/13 09:47:14;;;;;;;;;;;23.50;99.90;;;;;;5054689;28;19925;-84
2022/09/13 09:52:30;;;;;;;;;;;24.20;99.90;;;;;;5072048;28;19975;-83
2022/09/13 09:54:58;;;;;;;;;;;24.00;99.90;;;;;;5071719;28;20015;-82
2022/09/13 09:57:42;;;;;;;;;;;24.60;99.90;;;;;;5071914;28;20344;-84
2022/09/13 10:00:09;;;;;;;;;;;24.60;99.90;;;;;;5072778;28;19932;-84
2022/09/13 10:02:34;;;;;;;;;;;24.60;99.90;;;;;;5071958;28;19935;-82
2022/09/13 10:05:00;;;;;;;;;;;24.00;99.90;;;;;;5054955;28;20300;-83
2022/09/13 10:07:31;;;;;;;;;;;23.00;99.90;;;;;;5071350;28;20006;-82
2022/09/13 10:10:16;;;;;;;;;;;22.60;99.90;;;;;;5071090;28;19928;-81
2022/09/13 10:12:41;;;;;;;;;;;22.00;99.90;;;;;;5070956;28;19928;-83
2022/09/13 10:15:16;;;;;;;;;;;22.00;99.90;;;;;;5071862;28;19928;-82
2022/09/13 10:17:41;;;;;;;;;;;21.60;99.90;;;;;;5071608;28;19929;-82
2022/09/13 10:20:13;;;;;;;;;;;21.40;99.90;;;;;;5037993;28;19977;-82
2022/09/13 10:22:39;;;;;;;;;;;21.80;99.90;;;;;;5071795;28;19970;-82
2022/09/13 10:25:14;;;;;;;;;;;21.60;99.90;;;;;;5072643;28;19925;-83
2022/09/13 10:27:46;;;;;;;;;;;21.70;99.90;;;;;;5072686;28;20345;-84
2022/09/13 10:30:47;;;;;;;;;;;21.70;99.90;;;;;;5072187;28;20007;-82
2022/09/13 10:33:33;;;;;;;;;;;21.70;99.90;;;;;;5033242;28;20328;-81
2022/09/13 10:36:04;;;;;;;;;;;21.60;99.90;;;;;;5055410;28;19932;-84
2022/09/13 10:38:37;;;;;;;;;;;22.00;99.90;;;;;;5038026;28;19929;-83
2022/09/13 10:41:03;;;;;;;;;;;22.20;99.90;;;;;;5071130;28;20372;-82
2022/09/13 10:43:29;;;;;;;;;;;22.30;99.90;;;;;;5069741;28;19932;-82
2022/09/13 10:45:55;;;;;;;;;;;22.30;99.90;;;;;;5070867;28;19924;-82
2022/09/13 10:48:21;;;;;;;;;;;22.50;99.90;;;;;;5069846;28;19962;-82
2022/09/13 10:51:06;;;;;;;;;;;22.40;99.90;;;;;;5069651;28;19935;-82
2022/09/13 10:53:32;;;;;;;;;;;22.40;99.90;;;;;;5069688;28;20039;-82
2022/09/13 10:55:57;;;;;;;;;;;22.00;99.90;;;;;;5071087;28;19988;-82
2022/09/13 10:58:23;;;;;;;;;;;21.70;99.90;;;;;;5073490;28;19935;-82
2022/09/13 11:00:52;;;;;;;;;;;21.70;99.90;;;;;;5054410;28;19935;-82
2022/09/13 11:03:17;;;;;;;;;;;21.70;99.90;;;;;;5070361;28;19928;-83
2022/09/13 11:05:43;;;;;;;;;;;21.90;99.90;;;;;;5070721;28;19934;-81
2022/09/13 11:08:24;;;;;;;;;;;21.90;99.90;;;;;;5070876;28;19986;-83
2022/09/13 11:11:00;;;;;;;;;;;21.80;99.90;;;;;;5038027;28;19924;-82
2022/09/13 11:13:29;;;;;;;;;;;22.00;99.90;;;;;;5054599;28;19930;-81
2022/09/13 11:15:54;;;;;;;;;;;22.00;99.90;;;;;;5054165;28;20388;-82
2022/09/13 11:18:20;;;;;;;;;;;21.80;99.90;;;;;;5072004;28;20089;-83
2022/09/13 11:20:54;;;;;;;;;;;21.90;99.90;;;;;;5071968;28;19924;-82
2022/09/13 11:23:19;;;;;;;;;;;21.90;99.90;;;;;;5071113;28;20380;-88
2022/09/13 11:26:04;;;;;;;;;;;21.80;99.90;;;;;;5071832;28;19925;-87
2022/09/13 11:28:34;;;;;;;;;;;22.00;99.90;;;;;;5055069;28;19929;-87
2022/09/13 11:31:05;;;;;;;;;;;21.80;99.90;;;;;;5039295;28;19954;-86
2022/09/13 11:33:39;;;;;;;;;;;21.80;99.90;;;;;;5071475;28;19935;-87
2022/09/13 11:36:14;;;;;;;;;;;22.30;99.90;;;;;;5053867;28;19928;-90
2022/09/13 11:38:40;;;;;;;;;;;22.30;99.90;;;;;;5068657;28;19967;-83
2022/09/13 11:41:18;;;;;;;;;;;22.00;99.90;;;;;;5067595;28;19975;-82
2022/09/13 11:43:43;;;;;;;;;;;21.80;99.90;;;;;;5067521;28;20008;-83
2022/09/13 11:46:12;;;;;;;;;;;21.70;99.90;;;;;;5067525;28;20019;-82
2022/09/13 11:48:48;;;;;;;;;;;22.10;99.90;;;;;;5073135;28;20376;-82
2022/09/13 11:51:25;;;;;;;;;;;22.00;99.90;;;;;;5055090;28;19924;-82
2022/09/13 11:54:06;;;;;;;;;;;21.90;99.90;;;;;;5072112;28;19935;-81
2022/09/13 11:56:33;;;;;;;;;;;21.60;99.90;;;;;;5072662;28;19931;-82
2022/09/13 11:59:37;;;;;;;;;;;21.90;99.90;;;;;;5072358;28;20463;-82
2022/09/13 12:02:22;;;;;;;;;;;22.00;99.90;;;;;;5014774;28;20439;-82
2022/09/13 12:04:55;;;;;;;;;;;22.00;99.90;;;;;;5002831;28;19951;-82
2022/09/13 12:07:28;;;;;;;;;;;22.00;99.90;;;;;;5049873;28;19932;-82
2022/09/13 12:09:56;;;;;;;;;;;22.30;99.90;;;;;;5072404;28;19931;-82
2022/09/13 12:12:25;;;;;;;;;;;22.30;99.90;;;;;;5072380;28;19928;-82
2022/09/13 12:14:51;;;;;;;;;;;21.90;99.90;;;;;;5073028;28;19936;-82
2022/09/13 12:17:24;;;;;;;;;;;21.70;99.90;;;;;;5072509;28;19929;-82
2022/09/13 12:19:50;;;;;;;;;;;21.60;99.90;;;;;;5073008;28;19928;-81
2022/09/13 12:22:16;;;;;;;;;;;21.40;99.90;;;;;;5072640;28;19925;-81
2022/09/13 12:24:55;;;;;;;;;;;21.50;99.90;;;;;;5073403;28;20288;-82
2022/09/13 12:27:37;;;;;;;;;;;21.50;99.90;;;;;;5056428;28;19929;-82
2022/09/13 12:30:02;;;;;;;;;;;21.70;99.90;;;;;;5057023;28;19932;-82
2022/09/13 12:32:28;;;;;;;;;;;21.70;99.90;;;;;;5072487;28;20727;-82
2022/09/13 12:35:07;;;;;;;;;;;21.60;99.90;;;;;;5073374;28;20287;-81
2022/09/13 12:37:48;;;;;;;;;;;21.70;99.90;;;;;;5072779;28;19924;-82
2022/09/13 12:40:17;;;;;;;;;;;21.90;99.90;;;;;;5072248;28;19925;-82
2022/09/13 12:43:07;;;;;;;;;;;21.80;99.90;;;;;;5073472;28;19929;-82
2022/09/13 12:45:36;;;;;;;;;;;21.70;99.90;;;;;;5072345;28;20442;-83
2022/09/13 12:48:17;;;;;;;;;;;21.80;99.90;;;;;;5072881;28;19928;-82
2022/09/13 12:51:05;;;;;;;;;;;21.70;99.90;;;;;;5056234;28;20365;-82
2022/09/13 12:53:42;;;;;;;;;;;21.80;99.90;;;;;;5072451;28;19975;-82
2022/09/13 12:56:30;;;;;;;;;;;22.10;99.90;;;;;;5074462;28;19932;-83
2022/09/13 12:58:58;;;;;;;;;;;22.10;99.90;;;;;;5075809;28;19924;-81
2022/09/13 13:01:24;;;;;;;;;;;22.10;99.90;;;;;;5066506;28;19925;-81
2022/09/13 13:03:52;;;;;;;;;;;22.20;99.90;;;;;;5055231;28;19932;-81
2022/09/13 13:06:36;;;;;;;;;;;22.20;99.90;;;;;;5044788;28;19999;-82
2022/09/13 13:09:06;;;;;;;;;;;22.00;99.90;;;;;;5079067;28;19963;-82
2022/09/13 13:11:42;;;;;;;;;;;22.00;99.90;;;;;;5073776;28;19976;-82
2022/09/13 13:14:09;;;;;;;;;;;22.20;99.90;;;;;;5072797;28;20279;-82
2022/09/13 13:16:36;;;;;;;;;;;22.10;99.90;;;;;;5071378;28;19920;-83
2022/09/13 13:19:02;;;;;;;;;;;22.00;99.90;;;;;;5073910;28;19930;-82
2022/09/13 13:21:30;;;;;;;;;;;22.10;99.90;;;;;;5072145;28;20299;-81
2022/09/13 13:24:14;;;;;;;;;;;21.80;99.90;;;;;;5072924;28;19966;-83
2022/09/13 13:26:49;;;;;;;;;;;21.60;99.90;;;;;;5072301;28;19943;-82
2022/09/13 13:29:15;;;;;;;;;;;21.40;99.90;;;;;;5055943;28;20276;-81
2022/09/13 13:31:45;;;;;;;;;;;21.40;99.90;;;;;;5072850;28;19925;-82
2022/09/13 13:34:13;;;;;;;;;;;21.50;99.90;;;;;;5073884;28;19924;-83
2022/09/13 13:36:39;;;;;;;;;;;21.60;99.90;;;;;;5071745;28;19986;-82
2022/09/13 13:39:08;;;;;;;;;;;21.70;99.90;;;;;;5072580;28;20368;-81
2022/09/13 13:41:40;;;;;;;;;;;21.90;99.90;;;;;;5073093;28;19920;-81
2022/09/13 13:44:26;;;;;;;;;;;21.90;99.90;;;;;;5070186;28;19920;-81
2022/09/13 13:47:07;;;;;;;;;;;21.80;99.90;;;;;;5048142;28;19924;-79
2022/09/13 13:49:33;;;;;;;;;;;22.20;99.90;;;;;;5053047;28;20366;-81
2022/09/13 13:52:08;;;;;;;;;;;22.20;99.90;;;;;;5070579;28;19986;-81
2022/09/13 13:54:48;;;;;;;;;;;22.40;99.90;;;;;;5072690;28;20307;-82
2022/09/13 13:57:34;;;;;;;;;;;21.90;99.90;;;;;;5072990;28;20356;-82
2022/09/13 14:00:26;;;;;;;;;;;22.10;99.90;;;;;;5071753;28;19931;-81
2022/09/13 14:02:52;;;;;;;;;;;22.00;99.90;;;;;;5071248;28;19930;-82
2022/09/13 14:05:29;;;;;;;;;;;21.80;99.90;;;;;;5071679;28;19929;-83
2022/09/13 14:07:57;;;;;;;;;;;21.60;99.90;;;;;;5070642;28;20015;-82
2022/09/13 14:10:38;;;;;;;;;;;21.50;99.90;;;;;;5053399;28;19928;-82
2022/09/13 14:13:11;;;;;;;;;;;21.40;99.90;;;;;;5069039;28;19929;-82
2022/09/13 14:15:47;;;;;;;;;;;21.60;99.90;;;;;;5070547;28;20380;-81
2022/09/13 14:18:13;;;;;;;;;;;21.40;99.90;;;;;;5070885;28;20023;-81
2022/09/13 14:20:55;;;;;;;;;;;21.30;99.90;;;;;;5071683;28;19944;-81
2022/09/13 14:23:20;;;;;;;;;;;21.00;99.90;;;;;;5071338;28;20019;-80
2022/09/13 14:25:52;;;;;;;;;;;20.90;99.90;;;;;;5072376;28;20024;-81
2022/09/13 14:28:20;;;;;;;;;;;21.10;99.90;;;;;;5037774;28;20589;-82
2022/09/13 14:30:46;;;;;;;;;;;21.00;99.90;;;;;;5070178;28;19932;-81
2022/09/13 14:33:30;;;;;;;;;;;21.20;99.90;;;;;;5071149;28;19975;-82
2022/09/13 14:35:56;;;;;;;;;;;21.30;99.90;;;;;;5071973;28;19982;-81
2022/09/13 14:38:29;;;;;;;;;;;21.30;99.90;;;;;;5072131;28;19928;-81